TimeWET,TemperatureF,Dew PointF,Humidity,Sea Level PressureIn,VisibilityMPH,Wind Direction,Wind SpeedMPH,Gust SpeedMPH,PrecipitationIn,Events,Conditions,WindDirDegrees,DateUTC
12:00 AM,53,51,90,29.94,5,SE,8.1,,,,Mostly Cloudy,130,2014-03-12 00:00:00
12:00 AM,53.6,50.0,88,29.92,5.0,SE,8.1,-,N/A,,Mostly Cloudy,130,2014-03-12 00:00:00
2:00 AM,51.8,50.0,94,29.92,5.0,Variable,2.3,-,N/A,,Mostly Cloudy,0,2014-03-12 02:00:00
2:30 AM,51.8,51.8,100,29.92,5.0,NNE,4.6,-,N/A,,Mostly Cloudy,20,2014-03-12 02:30:00
3:00 AM,51,51,99,29.93,5,NE,4.6,,,,Mostly Cloudy,40,2014-03-12 03:00:00
3:00 AM,51.8,51.8,100,29.92,5.0,NE,4.6,-,N/A,,Mostly Cloudy,40,2014-03-12 03:00:00
3:30 AM,51.8,51.8,100,29.92,-9999.0,Variable,2.3,-,N/A,,Unknown,0,2014-03-12 03:30:00
4:00 AM,51.8,51.8,100,29.92,5.0,SE,5.8,-,N/A,,Mostly Cloudy,140,2014-03-12 04:00:00
4:30 AM,51.8,51.8,100,29.92,5.0,ESE,4.6,-,N/A,,Mostly Cloudy,120,2014-03-12 04:30:00
5:00 AM,51.8,51.8,100,29.95,5.0,NE,4.6,-,N/A,,Mostly Cloudy,40,2014-03-12 05:00:00
5:30 AM,51.8,51.8,100,29.95,-9999.0,ENE,2.3,-,N/A,,Unknown,60,2014-03-12 05:30:00
5:42 AM,51.8,51.8,100,29.95,5.0,Variable,2.3,-,N/A,,Mostly Cloudy,0,2014-03-12 05:42:00
6:00 AM,52,52,98,29.96,5,ESE,2.3,,,,Mostly Cloudy,120,2014-03-12 06:00:00
6:00 AM,51.8,51.8,100,29.95,5.0,Variable,2.3,-,N/A,,Mostly Cloudy,0,2014-03-12 06:00:00
6:30 AM,51.8,51.8,100,29.95,5.0,East,2.3,-,N/A,,Mostly Cloudy,100,2014-03-12 06:30:00
7:30 AM,51.8,51.8,100,29.95,5.0,ENE,3.5,-,N/A,,Mostly Cloudy,70,2014-03-12 07:30:00
8:00 AM,55.4,51.8,88,29.98,6.2,East,3.5,-,N/A,,Mostly Cloudy,80,2014-03-12 08:00:00
8:30 AM,55.4,51.8,88,29.98,6.2,Variable,2.3,-,N/A,,Mostly Cloudy,0,2014-03-12 08:30:00
8:46 AM,57,52,76,29.99,6,NE,3.5,,,,Partly Cloudy,50,2014-03-12 08:46:00
9:00 AM,57.2,51.8,82,30.01,6.2,NE,3.5,-,N/A,,Scattered Clouds,50,2014-03-12 09:00:00
9:30 AM,59.0,51.8,77,30.01,6.2,NNE,4.6,-,N/A,,Scattered Clouds,20,2014-03-12 09:30:00
10:00 AM,59.0,51.8,77,30.01,6.2,NE,3.5,-,N/A,,Scattered Clouds,40,2014-03-12 10:00:00
10:30 AM,60.8,51.8,72,30.04,6.2,Variable,2.3,-,N/A,,Scattered Clouds,0,2014-03-12 10:30:00
11:30 AM,62.6,53.6,72,30.04,6.2,NE,5.8,-,N/A,,Scattered Clouds,50,2014-03-12 11:30:00
11:49 AM,64,52,55,29.99,6,ENE,3.5,,,,Mostly Cloudy,60,2014-03-12 11:49:00
12:00 PM,64.4,51.8,64,30.01,6.2,ENE,3.5,-,N/A,,Mostly Cloudy,70,2014-03-12 12:00:00
12:30 PM,64.4,51.8,64,30.01,6.2,North,3.5,-,N/A,,Mostly Cloudy,350,2014-03-12 12:30:00
1:00 PM,64.4,51.8,64,30.01,6.2,NE,4.6,-,N/A,,Mostly Cloudy,50,2014-03-12 13:00:00
1:30 PM,66.2,51.8,60,29.98,6.2,Variable,3.5,-,N/A,,Mostly Cloudy,0,2014-03-12 13:30:00
2:00 PM,68.0,50.0,52,29.98,6.2,North,3.5,-,N/A,,Mostly Cloudy,360,2014-03-12 14:00:00
2:30 PM,66.2,50.0,56,29.98,6.2,NNW,4.6,-,N/A,,Mostly Cloudy,330,2014-03-12 14:30:00
3:00 PM,68,51,44,29.91,6,West,3.5,,,,Mostly Cloudy,270,2014-03-12 15:00:00
3:00 PM,68.0,50.0,52,29.95,6.2,Variable,2.3,-,N/A,,Mostly Cloudy,0,2014-03-12 15:00:00
3:30 PM,66.2,50.0,56,29.95,6.2,Variable,1.2,-,N/A,,Mostly Cloudy,0,2014-03-12 15:30:00
4:00 PM,68.0,51.8,56,29.95,6.2,Variable,3.5,-,N/A,,Mostly Cloudy,0,2014-03-12 16:00:00
4:30 PM,-9999,-9999,N/A,0.00,-9999.0,North,-9999.0,-,N/A,,Mostly Cloudy,0,2014-03-12 16:30:00
5:00 PM,66.2,50.0,56,29.95,6.2,WNW,5.8,-,N/A,,Mostly Cloudy,290,2014-03-12 17:00:00
5:30 PM,68.0,53.6,60,29.95,6.2,West,9.2,-,N/A,,Mostly Cloudy,270,2014-03-12 17:30:00
6:00 PM,67,52,49,29.92,6,West,11.5,,,,Partly Cloudy,280,2014-03-12 18:00:00
6:00 PM,66.2,51.8,60,29.95,6.2,West,10.4,-,N/A,,Mostly Cloudy,280,2014-03-12 18:00:00
6:30 PM,66.2,51.8,60,29.98,6.2,West,10.4,-,N/A,,Scattered Clouds,270,2014-03-12 18:30:00
7:00 PM,64.4,53.6,68,29.98,6.2,West,9.2,-,N/A,Thunderstorm,Thunderstorm,270,2014-03-12 19:00:00
7:30 PM,62.6,53.6,72,30.01,6.2,West,9.2,-,N/A,Thunderstorm,Thunderstorm,270,2014-03-12 19:30:00
8:00 PM,62.6,55.4,77,30.01,6.2,NNW,12.7,-,N/A,Thunderstorm,Thunderstorm,340,2014-03-12 20:00:00
8:30 PM,60.8,55.4,82,30.01,6.2,NNW,11.5,-,N/A,Thunderstorm,Thunderstorm,340,2014-03-12 20:30:00
8:45 PM,60,55,79,30.02,5,North,13.8,,,,Partly Cloudy,350,2014-03-12 20:45:00
9:00 PM,60.8,55.4,82,30.04,5.0,North,12.7,-,N/A,Rain-Thunderstorm,Thunderstorms and Rain,350,2014-03-12 21:00:00
9:30 PM,59.0,55.4,88,30.04,3.7,North,11.5,-,N/A,Rain-Thunderstorm,Thunderstorms and Rain,350,2014-03-12 21:30:00
10:00 PM,57.2,53.6,88,30.06,3.7,East,8.1,-,N/A,Rain-Thunderstorm,Thunderstorms and Rain,90,2014-03-12 22:00:00
10:30 PM,57.2,53.6,88,30.06,6.2,East,5.8,-,N/A,,Scattered Clouds,100,2014-03-12 22:30:00
11:00 PM,57.2,53.6,88,30.06,6.2,East,6.9,-,N/A,,Scattered Clouds,80,2014-03-12 23:00:00
11:30 PM,57.2,53.6,88,30.06,6.2,South,4.6,-,N/A,,Scattered Clouds,170,2014-03-12 23:30:00